Olympia, Kentucky
Current Conditions -  °F | °C
As of 3:50 PM on Friday 21 Nov 2014 (Local Time) from KSYM Reporting Station
Clear Clear  
Wind Chill: 37°   Ceiling: Unl
Heat Index: 37°   Visibility: 10mi
Dew Point:   Wind: 0mph
Humidity: 24%   Direction: NA
Pressure: 30.48"   Gusts: NA
Location:  38.1°N, 83.7°W
Report Text: KSYM 212050Z AUTO 00000KT 10SM CLR 03/M16 A3048 RMK AO2
Loading
Personal Weather Stations






























Interactive Weather Map New forecast layout! Learn more

10-Day Weather Forecast

Advertisements
Track Severe Weather on mobile